sensor_id;sensor_type;location;lat;lon;timestamp;pressure;altitude;pressure_sealevel;temperature;humidity
35910;BME280;22004;49.120;-0.200;2023-03-11T00:00:10;100635.56;;;8.96;66.94
35910;BME280;22004;49.120;-0.200;2023-03-11T00:02:38;100670.03;;;9.39;65.98
35910;BME280;22004;49.120;-0.200;2023-03-11T00:05:05;100681.25;;;9.42;65.35
35910;BME280;22004;49.120;-0.200;2023-03-11T00:07:30;100676.72;;;9.43;65.06
35910;BME280;22004;49.120;-0.200;2023-03-11T00:09:55;100674.97;;;9.58;64.90
35910;BME280;22004;49.120;-0.200;2023-03-11T00:12:21;100683.25;;;8.93;66.50
35910;BME280;22004;49.120;-0.200;2023-03-11T00:14:46;100692.50;;;9.29;65.81
35910;BME280;22004;49.120;-0.200;2023-03-11T00:17:12;100676.78;;;8.63;65.80
35910;BME280;22004;49.120;-0.200;2023-03-11T00:19:37;100667.38;;;8.83;66.87
35910;BME280;22004;49.120;-0.200;2023-03-11T00:22:02;100659.59;;;9.52;65.49
35910;BME280;22004;49.120;-0.200;2023-03-11T00:24:28;100655.78;;;8.99;66.68
35910;BME280;22004;49.120;-0.200;2023-03-11T00:26:53;100650.84;;;9.19;64.25
35910;BME280;22004;49.120;-0.200;2023-03-11T00:29:18;100656.47;;;9.01;66.65
35910;BME280;22004;49.120;-0.200;2023-03-11T00:31:44;100629.63;;;7.88;68.48
35910;BME280;22004;49.120;-0.200;2023-03-11T00:34:09;100623.31;;;8.38;67.48
35910;BME280;22004;49.120;-0.200;2023-03-11T00:36:34;100636.22;;;8.98;66.70
35910;BME280;22004;49.120;-0.200;2023-03-11T00:39:01;100662.81;;;9.00;65.91
35910;BME280;22004;49.120;-0.200;2023-03-11T00:41:28;100685.53;;;9.20;63.59
35910;BME280;22004;49.120;-0.200;2023-03-11T00:43:53;100693.97;;;8.85;65.59
35910;BME280;22004;49.120;-0.200;2023-03-11T00:46:19;100696.44;;;9.11;63.91
35910;BME280;22004;49.120;-0.200;2023-03-11T00:48:44;100695.13;;;7.92;69.55
35910;BME280;22004;49.120;-0.200;2023-03-11T00:51:14;100688.13;;;7.41;66.76
35910;BME280;22004;49.120;-0.200;2023-03-11T00:53:40;100694.97;;;7.94;67.23
35910;BME280;22004;49.120;-0.200;2023-03-11T00:56:10;100686.00;;;8.52;67.72
35910;BME280;22004;49.120;-0.200;2023-03-11T00:58:37;100685.50;;;7.07;65.90
35910;BME280;22004;49.120;-0.200;2023-03-11T01:01:09;100699.19;;;6.86;72.27
35910;BME280;22004;49.120;-0.200;2023-03-11T01:03:36;100693.81;;;8.29;67.45
35910;BME280;22004;49.120;-0.200;2023-03-11T01:06:01;100696.69;;;7.10;68.20
35910;BME280;22004;49.120;-0.200;2023-03-11T01:08:27;100707.34;;;7.36;66.52
35910;BME280;22004;49.120;-0.200;2023-03-11T01:10:54;100691.34;;;8.36;69.42
35910;BME280;22004;49.120;-0.200;2023-03-11T01:13:19;100685.47;;;8.32;68.26
35910;BME280;22004;49.120;-0.200;2023-03-11T01:15:45;100682.03;;;7.57;64.43
35910;BME280;22004;49.120;-0.200;2023-03-11T01:18:11;100680.13;;;8.48;66.34
35910;BME280;22004;49.120;-0.200;2023-03-11T01:20:37;100700.03;;;7.12;66.38
35910;BME280;22004;49.120;-0.200;2023-03-11T01:23:03;100698.22;;;8.38;65.19
35910;BME280;22004;49.120;-0.200;2023-03-11T01:25:28;100694.84;;;8.69;67.08
35910;BME280;22004;49.120;-0.200;2023-03-11T01:27:54;100717.72;;;8.79;66.76
35910;BME280;22004;49.120;-0.200;2023-03-11T01:30:21;100717.06;;;8.69;64.57
35910;BME280;22004;49.120;-0.200;2023-03-11T01:32:47;100726.88;;;9.10;66.03
35910;BME280;22004;49.120;-0.200;2023-03-11T01:35:15;100719.72;;;8.94;62.15
35910;BME280;22004;49.120;-0.200;2023-03-11T01:37:42;100706.38;;;9.41;65.18
35910;BME280;22004;49.120;-0.200;2023-03-11T01:40:13;100708.22;;;9.41;65.11
35910;BME280;22004;49.120;-0.200;2023-03-11T01:42:39;100712.53;;;9.50;65.18
35910;BME280;22004;49.120;-0.200;2023-03-11T01:47:53;100707.19;;;9.42;65.26
35910;BME280;22004;49.120;-0.200;2023-03-11T01:50:18;100714.22;;;9.43;65.53
35910;BME280;22004;49.120;-0.200;2023-03-11T01:52:44;100714.53;;;9.48;65.08
35910;BME280;22004;49.120;-0.200;2023-03-11T01:55:11;100698.47;;;9.00;66.30
35910;BME280;22004;49.120;-0.200;2023-03-11T01:57:38;100686.81;;;9.32;65.65
35910;BME280;22004;49.120;-0.200;2023-03-11T02:00:07;100691.31;;;8.60;64.48
35910;BME280;22004;49.120;-0.200;2023-03-11T02:02:38;100693.16;;;8.68;67.07
35910;BME280;22004;49.120;-0.200;2023-03-11T02:05:05;100684.66;;;8.56;66.50
35910;BME280;22004;49.120;-0.200;2023-03-11T02:07:31;100673.94;;;8.72;64.76
35910;BME280;22004;49.120;-0.200;2023-03-11T02:09:56;100671.88;;;9.38;66.04
35910;BME280;22004;49.120;-0.200;2023-03-11T02:12:22;100663.56;;;7.88;68.38
35910;BME280;22004;49.120;-0.200;2023-03-11T02:14:49;100655.41;;;8.46;66.99
35910;BME280;22004;49.120;-0.200;2023-03-11T02:17:15;100652.38;;;7.92;67.97
35910;BME280;22004;49.120;-0.200;2023-03-11T02:20:04;100659.75;;;8.31;67.41
35910;BME280;22004;49.120;-0.200;2023-03-11T02:22:37;100651.03;;;9.17;65.49
35910;BME280;22004;49.120;-0.200;2023-03-11T02:27:52;100603.00;;;7.38;70.14
35910;BME280;22004;49.120;-0.200;2023-03-11T02:30:20;100586.97;;;6.53;70.01
35910;BME280;22004;49.120;-0.200;2023-03-11T02:32:46;100601.13;;;7.30;70.63
35910;BME280;22004;49.120;-0.200;2023-03-11T02:35:13;100613.06;;;8.34;68.42
35910;BME280;22004;49.120;-0.200;2023-03-11T02:37:50;100603.69;;;8.62;66.87
35910;BME280;22004;49.120;-0.200;2023-03-11T02:42:49;100602.16;;;6.53;71.89
35910;BME280;22004;49.120;-0.200;2023-03-11T02:45:17;100611.03;;;7.46;68.28
35910;BME280;22004;49.120;-0.200;2023-03-11T02:47:44;100610.09;;;7.96;67.10
35910;BME280;22004;49.120;-0.200;2023-03-11T02:50:12;100621.25;;;7.75;69.11
35910;BME280;22004;49.120;-0.200;2023-03-11T02:52:39;100614.19;;;7.49;67.53
35910;BME280;22004;49.120;-0.200;2023-03-11T02:55:06;100627.63;;;7.66;68.63
35910;BME280;22004;49.120;-0.200;2023-03-11T02:57:32;100631.44;;;8.69;67.76
35910;BME280;22004;49.120;-0.200;2023-03-11T02:59:57;100637.75;;;8.85;67.25
35910;BME280;22004;49.120;-0.200;2023-03-11T03:02:24;100633.53;;;8.98;67.08
35910;BME280;22004;49.120;-0.200;2023-03-11T03:04:49;100636.56;;;8.95;65.86
35910;BME280;22004;49.120;-0.200;2023-03-11T03:07:14;100638.81;;;8.75;65.10
35910;BME280;22004;49.120;-0.200;2023-03-11T03:09:40;100645.03;;;9.15;66.21
35910;BME280;22004;49.120;-0.200;2023-03-11T03:12:06;100639.50;;;9.09;66.08
35910;BME280;22004;49.120;-0.200;2023-03-11T03:14:31;100639.69;;;9.07;66.34
35910;BME280;22004;49.120;-0.200;2023-03-11T03:16:57;100635.16;;;8.36;68.17
35910;BME280;22004;49.120;-0.200;2023-03-11T03:19:22;100619.19;;;8.75;66.96
35910;BME280;22004;49.120;-0.200;2023-03-11T03:21:48;100626.66;;;8.16;65.64
35910;BME280;22004;49.120;-0.200;2023-03-11T03:24:13;100637.66;;;8.53;66.81
35910;BME280;22004;49.120;-0.200;2023-03-11T03:26:39;100642.38;;;9.07;67.13
35910;BME280;22004;49.120;-0.200;2023-03-11T03:29:04;100616.38;;;8.76;65.02
35910;BME280;22004;49.120;-0.200;2023-03-11T03:31:30;100635.00;;;8.37;67.56
35910;BME280;22004;49.120;-0.200;2023-03-11T03:33:56;100643.28;;;7.61;68.34
35910;BME280;22004;49.120;-0.200;2023-03-11T03:36:22;100634.44;;;7.68;70.39
35910;BME280;22004;49.120;-0.200;2023-03-11T03:38:51;100637.66;;;8.13;69.24
35910;BME280;22004;49.120;-0.200;2023-03-11T03:41:17;100656.34;;;8.78;66.98
35910;BME280;22004;49.120;-0.200;2023-03-11T03:43:42;100657.31;;;8.93;67.34
35910;BME280;22004;49.120;-0.200;2023-03-11T03:46:07;100637.97;;;9.22;66.41
35910;BME280;22004;49.120;-0.200;2023-03-11T03:48:33;100614.13;;;8.41;67.25
35910;BME280;22004;49.120;-0.200;2023-03-11T03:51:07;100606.75;;;8.51;67.52
35910;BME280;22004;49.120;-0.200;2023-03-11T03:53:33;100604.22;;;8.49;68.30
35910;BME280;22004;49.120;-0.200;2023-03-11T03:56:10;100615.41;;;8.20;69.20
35910;BME280;22004;49.120;-0.200;2023-03-11T03:58:36;100588.28;;;8.64;67.29
35910;BME280;22004;49.120;-0.200;2023-03-11T04:01:02;100601.97;;;7.22;69.70
35910;BME280;22004;49.120;-0.200;2023-03-11T04:03:28;100624.81;;;7.92;70.89
35910;BME280;22004;49.120;-0.200;2023-03-11T04:05:54;100638.94;;;7.60;68.64
35910;BME280;22004;49.120;-0.200;2023-03-11T04:08:29;100629.31;;;8.48;65.70
35910;BME280;22004;49.120;-0.200;2023-03-11T04:10:57;100623.13;;;8.40;67.83
35910;BME280;22004;49.120;-0.200;2023-03-11T04:13:22;100631.09;;;6.73;71.02
35910;BME280;22004;49.120;-0.200;2023-03-11T04:15:47;100633.41;;;7.53;69.95
35910;BME280;22004;49.120;-0.200;2023-03-11T04:18:13;100640.69;;;8.01;70.50
35910;BME280;22004;49.120;-0.200;2023-03-11T04:20:38;100652.56;;;8.48;64.36
35910;BME280;22004;49.120;-0.200;2023-03-11T04:23:04;100660.38;;;8.00;70.07
35910;BME280;22004;49.120;-0.200;2023-03-11T04:25:29;100663.75;;;7.36;71.19
35910;BME280;22004;49.120;-0.200;2023-03-11T04:27:54;100654.72;;;8.03;69.61
35910;BME280;22004;49.120;-0.200;2023-03-11T04:30:20;100662.75;;;8.44;67.22
35910;BME280;22004;49.120;-0.200;2023-03-11T04:32:45;100659.47;;;7.59;69.76
35910;BME280;22004;49.120;-0.200;2023-03-11T04:35:11;100658.25;;;6.69;69.38
35910;BME280;22004;49.120;-0.200;2023-03-11T04:37:36;100655.19;;;7.99;69.08
35910;BME280;22004;49.120;-0.200;2023-03-11T04:40:01;100643.34;;;7.93;69.49
35910;BME280;22004;49.120;-0.200;2023-03-11T04:42:28;100647.72;;;7.28;68.83
35910;BME280;22004;49.120;-0.200;2023-03-11T04:44:53;100666.75;;;7.33;70.94
35910;BME280;22004;49.120;-0.200;2023-03-11T04:47:18;100670.78;;;8.61;67.43
35910;BME280;22004;49.120;-0.200;2023-03-11T04:49:45;100668.09;;;8.61;67.55
35910;BME280;22004;49.120;-0.200;2023-03-11T04:52:11;100662.56;;;8.62;67.34
35910;BME280;22004;49.120;-0.200;2023-03-11T04:54:36;100654.25;;;8.41;68.62
35910;BME280;22004;49.120;-0.200;2023-03-11T04:57:01;100662.09;;;8.42;66.30
35910;BME280;22004;49.120;-0.200;2023-03-11T04:59:27;100667.56;;;8.08;65.64
35910;BME280;22004;49.120;-0.200;2023-03-11T05:01:52;100662.41;;;8.23;66.06
35910;BME280;22004;49.120;-0.200;2023-03-11T05:04:17;100667.41;;;7.27;66.71
35910;BME280;22004;49.120;-0.200;2023-03-11T05:06:43;100664.06;;;7.33;67.74
35910;BME280;22004;49.120;-0.200;2023-03-11T05:09:08;100657.69;;;7.17;69.95
35910;BME280;22004;49.120;-0.200;2023-03-11T05:11:33;100661.75;;;7.38;68.61
35910;BME280;22004;49.120;-0.200;2023-03-11T05:13:59;100666.72;;;7.24;70.16
35910;BME280;22004;49.120;-0.200;2023-03-11T05:16:24;100666.81;;;6.29;68.99
35910;BME280;22004;49.120;-0.200;2023-03-11T05:18:49;100675.53;;;6.57;70.09
35910;BME280;22004;49.120;-0.200;2023-03-11T05:21:15;100680.00;;;6.56;70.57
35910;BME280;22004;49.120;-0.200;2023-03-11T05:23:40;100686.09;;;7.35;69.17
35910;BME280;22004;49.120;-0.200;2023-03-11T05:26:05;100685.50;;;7.07;69.88
35910;BME280;22004;49.120;-0.200;2023-03-11T05:28:31;100669.41;;;7.33;66.62
35910;BME280;22004;49.120;-0.200;2023-03-11T05:30:56;100661.06;;;5.98;71.99
35910;BME280;22004;49.120;-0.200;2023-03-11T05:33:22;100669.97;;;7.02;69.10
35910;BME280;22004;49.120;-0.200;2023-03-11T05:35:47;100686.47;;;6.10;71.65
35910;BME280;22004;49.120;-0.200;2023-03-11T05:38:12;100689.44;;;6.25;70.92
35910;BME280;22004;49.120;-0.200;2023-03-11T05:40:38;100691.56;;;6.21;69.16
35910;BME280;22004;49.120;-0.200;2023-03-11T05:43:03;100689.31;;;7.38;71.72
35910;BME280;22004;49.120;-0.200;2023-03-11T05:45:29;100675.72;;;7.23;70.57
35910;BME280;22004;49.120;-0.200;2023-03-11T05:47:54;100670.75;;;6.94;68.43
35910;BME280;22004;49.120;-0.200;2023-03-11T05:50:20;100670.88;;;5.97;73.39
35910;BME280;22004;49.120;-0.200;2023-03-11T05:52:45;100685.31;;;6.30;70.11
35910;BME280;22004;49.120;-0.200;2023-03-11T05:55:10;100688.19;;;7.15;70.77
35910;BME280;22004;49.120;-0.200;2023-03-11T05:57:37;100692.53;;;7.58;70.97
35910;BME280;22004;49.120;-0.200;2023-03-11T06:00:04;100689.31;;;7.04;67.31
35910;BME280;22004;49.120;-0.200;2023-03-11T06:02:31;100672.06;;;7.83;70.13
35910;BME280;22004;49.120;-0.200;2023-03-11T06:04:56;100677.75;;;7.30;69.84
35910;BME280;22004;49.120;-0.200;2023-03-11T06:07:22;100686.09;;;7.85;66.81
35910;BME280;22004;49.120;-0.200;2023-03-11T06:09:49;100697.81;;;8.09;68.52
35910;BME280;22004;49.120;-0.200;2023-03-11T06:12:14;100699.94;;;6.70;66.89
35910;BME280;22004;49.120;-0.200;2023-03-11T06:14:39;100684.56;;;6.64;68.32
35910;BME280;22004;49.120;-0.200;2023-03-11T06:17:05;100683.06;;;6.87;70.81
35910;BME280;22004;49.120;-0.200;2023-03-11T06:19:30;100670.69;;;6.16;70.44
35910;BME280;22004;49.120;-0.200;2023-03-11T06:21:55;100672.22;;;5.83;73.21
35910;BME280;22004;49.120;-0.200;2023-03-11T06:24:21;100675.34;;;5.96;74.00
35910;BME280;22004;49.120;-0.200;2023-03-11T06:26:50;100673.66;;;6.31;72.76
35910;BME280;22004;49.120;-0.200;2023-03-11T06:29:15;100664.59;;;7.36;72.06
35910;BME280;22004;49.120;-0.200;2023-03-11T06:31:41;100665.34;;;6.16;71.27
35910;BME280;22004;49.120;-0.200;2023-03-11T06:34:08;100681.72;;;7.17;70.72
35910;BME280;22004;49.120;-0.200;2023-03-11T06:36:33;100682.50;;;7.10;72.65
35910;BME280;22004;49.120;-0.200;2023-03-11T06:38:59;100688.50;;;6.78;68.53
35910;BME280;22004;49.120;-0.200;2023-03-11T06:41:24;100693.69;;;6.35;72.47
35910;BME280;22004;49.120;-0.200;2023-03-11T06:43:50;100690.75;;;7.75;70.59
35910;BME280;22004;49.120;-0.200;2023-03-11T06:46:21;100693.47;;;6.46;69.79
35910;BME280;22004;49.120;-0.200;2023-03-11T06:48:47;100699.50;;;7.43;66.74
35910;BME280;22004;49.120;-0.200;2023-03-11T06:51:16;100692.91;;;6.87;68.91
35910;BME280;22004;49.120;-0.200;2023-03-11T06:53:42;100698.09;;;6.44;70.79
35910;BME280;22004;49.120;-0.200;2023-03-11T06:56:10;100702.25;;;5.76;72.74
35910;BME280;22004;49.120;-0.200;2023-03-11T06:58:37;100711.78;;;5.78;72.56
35910;BME280;22004;49.120;-0.200;2023-03-11T07:01:09;100713.97;;;6.28;69.74
35910;BME280;22004;49.120;-0.200;2023-03-11T07:03:34;100708.88;;;6.61;73.68
35910;BME280;22004;49.120;-0.200;2023-03-11T07:06:00;100711.28;;;6.10;72.70
35910;BME280;22004;49.120;-0.200;2023-03-11T07:08:25;100699.81;;;5.64;72.44
35910;BME280;22004;49.120;-0.200;2023-03-11T07:11:18;100712.81;;;6.48;73.35
35910;BME280;22004;49.120;-0.200;2023-03-11T07:13:44;100712.38;;;6.17;72.66
35910;BME280;22004;49.120;-0.200;2023-03-11T07:16:37;100719.03;;;7.43;69.52
35910;BME280;22004;49.120;-0.200;2023-03-11T07:19:02;100720.34;;;7.39;68.76
35910;BME280;22004;49.120;-0.200;2023-03-11T07:21:28;100727.84;;;7.02;69.05
35910;BME280;22004;49.120;-0.200;2023-03-11T07:23:57;100724.31;;;6.31;71.55
35910;BME280;22004;49.120;-0.200;2023-03-11T07:26:24;100723.16;;;6.16;71.61
35910;BME280;22004;49.120;-0.200;2023-03-11T07:28:50;100728.69;;;5.87;73.83
35910;BME280;22004;49.120;-0.200;2023-03-11T07:31:22;100718.31;;;6.99;72.19
35910;BME280;22004;49.120;-0.200;2023-03-11T07:33:48;100716.72;;;5.73;73.48
35910;BME280;22004;49.120;-0.200;2023-03-11T07:36:16;100710.56;;;5.90;72.36
35910;BME280;22004;49.120;-0.200;2023-03-11T07:38:42;100704.69;;;5.14;74.01
35910;BME280;22004;49.120;-0.200;2023-03-11T07:41:09;100719.72;;;5.42;72.59
35910;BME280;22004;49.120;-0.200;2023-03-11T07:43:36;100706.22;;;5.16;74.39
35910;BME280;22004;49.120;-0.200;2023-03-11T07:46:12;100706.31;;;5.25;73.59
35910;BME280;22004;49.120;-0.200;2023-03-11T07:48:39;100715.25;;;5.33;74.07
35910;BME280;22004;49.120;-0.200;2023-03-11T07:51:08;100709.44;;;5.48;74.21
35910;BME280;22004;49.120;-0.200;2023-03-11T07:53:34;100720.56;;;5.61;73.55
35910;BME280;22004;49.120;-0.200;2023-03-11T07:56:02;100736.31;;;5.17;75.55
35910;BME280;22004;49.120;-0.200;2023-03-11T07:58:29;100746.56;;;4.55;75.72
35910;BME280;22004;49.120;-0.200;2023-03-11T08:00:56;100748.28;;;5.03;74.96
35910;BME280;22004;49.120;-0.200;2023-03-11T08:03:22;100752.84;;;5.21;74.76
35910;BME280;22004;49.120;-0.200;2023-03-11T08:08:53;100742.28;;;5.38;72.37
35910;BME280;22004;49.120;-0.200;2023-03-11T08:11:18;100744.47;;;5.15;73.61
35910;BME280;22004;49.120;-0.200;2023-03-11T08:13:45;100752.75;;;6.22;72.53
35910;BME280;22004;49.120;-0.200;2023-03-11T08:16:14;100740.59;;;5.65;71.70
35910;BME280;22004;49.120;-0.200;2023-03-11T08:18:40;100753.56;;;6.05;72.71
35910;BME280;22004;49.120;-0.200;2023-03-11T08:21:07;100758.97;;;6.13;71.49
35910;BME280;22004;49.120;-0.200;2023-03-11T08:23:34;100754.84;;;6.01;71.75
35910;BME280;22004;49.120;-0.200;2023-03-11T08:26:08;100750.97;;;6.13;71.80
35910;BME280;22004;49.120;-0.200;2023-03-11T08:28:34;100742.97;;;6.67;72.19
35910;BME280;22004;49.120;-0.200;2023-03-11T08:30:59;100739.38;;;5.87;71.17
35910;BME280;22004;49.120;-0.200;2023-03-11T08:33:25;100738.56;;;6.04;73.16
35910;BME280;22004;49.120;-0.200;2023-03-11T08:35:50;100743.75;;;5.78;72.20
35910;BME280;22004;49.120;-0.200;2023-03-11T08:38:16;100755.09;;;5.80;72.61
35910;BME280;22004;49.120;-0.200;2023-03-11T08:40:41;100744.19;;;5.46;72.39
35910;BME280;22004;49.120;-0.200;2023-03-11T08:43:06;100749.06;;;5.51;72.21
35910;BME280;22004;49.120;-0.200;2023-03-11T08:45:32;100753.34;;;5.89;73.43
35910;BME280;22004;49.120;-0.200;2023-03-11T08:47:58;100751.09;;;5.66;72.33
35910;BME280;22004;49.120;-0.200;2023-03-11T08:50:23;100755.63;;;6.29;70.94
35910;BME280;22004;49.120;-0.200;2023-03-11T08:52:48;100752.03;;;5.75;74.10
35910;BME280;22004;49.120;-0.200;2023-03-11T08:55:15;100748.91;;;6.25;71.32
35910;BME280;22004;49.120;-0.200;2023-03-11T08:57:43;100747.34;;;5.59;71.27
35910;BME280;22004;49.120;-0.200;2023-03-11T09:00:10;100757.31;;;6.12;72.01
35910;BME280;22004;49.120;-0.200;2023-03-11T09:02:36;100764.47;;;6.12;72.29
35910;BME280;22004;49.120;-0.200;2023-03-11T09:05:01;100764.25;;;7.11;69.81
35910;BME280;22004;49.120;-0.200;2023-03-11T09:07:27;100765.63;;;6.89;71.51
35910;BME280;22004;49.120;-0.200;2023-03-11T09:09:52;100758.81;;;6.68;71.01
35910;BME280;22004;49.120;-0.200;2023-03-11T09:12:19;100766.34;;;7.25;69.24
35910;BME280;22004;49.120;-0.200;2023-03-11T09:14:44;100760.00;;;6.74;70.12
35910;BME280;22004;49.120;-0.200;2023-03-11T09:17:10;100758.19;;;7.00;69.27
35910;BME280;22004;49.120;-0.200;2023-03-11T09:19:37;100761.38;;;6.78;69.06
35910;BME280;22004;49.120;-0.200;2023-03-11T09:22:03;100758.97;;;6.93;68.88
35910;BME280;22004;49.120;-0.200;2023-03-11T09:24:32;100766.28;;;6.29;72.41
35910;BME280;22004;49.120;-0.200;2023-03-11T09:26:57;100773.59;;;6.45;71.45
35910;BME280;22004;49.120;-0.200;2023-03-11T09:29:23;100785.56;;;6.23;72.42
35910;BME280;22004;49.120;-0.200;2023-03-11T09:31:48;100786.31;;;6.87;70.65
35910;BME280;22004;49.120;-0.200;2023-03-11T09:34:13;100798.56;;;6.97;69.83
35910;BME280;22004;49.120;-0.200;2023-03-11T09:36:42;100786.09;;;6.62;70.20
35910;BME280;22004;49.120;-0.200;2023-03-11T09:39:08;100782.28;;;6.65;71.38
35910;BME280;22004;49.120;-0.200;2023-03-11T09:41:41;100785.72;;;6.57;71.18
35910;BME280;22004;49.120;-0.200;2023-03-11T09:47:32;100767.34;;;6.98;69.30
35910;BME280;22004;49.120;-0.200;2023-03-11T09:52:08;100777.84;;;6.73;70.81
35910;BME280;22004;49.120;-0.200;2023-03-11T09:54:38;100777.06;;;7.33;70.55
35910;BME280;22004;49.120;-0.200;2023-03-11T09:57:05;100778.44;;;7.37;68.84
35910;BME280;22004;49.120;-0.200;2023-03-11T09:59:35;100783.00;;;6.93;70.21
35910;BME280;22004;49.120;-0.200;2023-03-11T10:02:03;100787.91;;;7.06;69.51
35910;BME280;22004;49.120;-0.200;2023-03-11T10:04:38;100790.19;;;7.87;68.77
35910;BME280;22004;49.120;-0.200;2023-03-11T10:07:11;100801.78;;;7.35;69.71
35910;BME280;22004;49.120;-0.200;2023-03-11T10:09:50;100796.63;;;6.64;71.74
35910;BME280;22004;49.120;-0.200;2023-03-11T10:23:21;100799.97;;;7.10;71.62
35910;BME280;22004;49.120;-0.200;2023-03-11T10:25:51;100795.56;;;7.00;71.54
35910;BME280;22004;49.120;-0.200;2023-03-11T10:28:20;100794.50;;;7.19;69.91
35910;BME280;22004;49.120;-0.200;2023-03-11T10:30:50;100796.34;;;6.93;70.99
35910;BME280;22004;49.120;-0.200;2023-03-11T10:35:44;100791.38;;;6.98;71.05
35910;BME280;22004;49.120;-0.200;2023-03-11T10:38:18;100793.06;;;6.81;72.59
35910;BME280;22004;49.120;-0.200;2023-03-11T10:40:46;100794.75;;;7.26;70.59
35910;BME280;22004;49.120;-0.200;2023-03-11T10:43:17;100792.44;;;7.31;70.18
35910;BME280;22004;49.120;-0.200;2023-03-11T10:45:44;100800.25;;;7.59;70.66
35910;BME280;22004;49.120;-0.200;2023-03-11T10:48:14;100789.31;;;7.44;70.18
35910;BME280;22004;49.120;-0.200;2023-03-11T10:50:45;100781.00;;;7.21;70.33
35910;BME280;22004;49.120;-0.200;2023-03-11T10:53:15;100784.94;;;7.35;68.36
35910;BME280;22004;49.120;-0.200;2023-03-11T10:55:47;100788.59;;;7.68;69.95
35910;BME280;22004;49.120;-0.200;2023-03-11T10:58:16;100781.69;;;7.23;70.66
35910;BME280;22004;49.120;-0.200;2023-03-11T11:00:41;100781.38;;;7.00;70.68
35910;BME280;22004;49.120;-0.200;2023-03-11T11:03:16;100783.16;;;8.36;68.64
35910;BME280;22004;49.120;-0.200;2023-03-11T11:05:43;100778.34;;;7.55;70.51
35910;BME280;22004;49.120;-0.200;2023-03-11T11:08:12;100771.31;;;7.46;70.46
35910;BME280;22004;49.120;-0.200;2023-03-11T11:10:51;100765.06;;;7.03;72.75
35910;BME280;22004;49.120;-0.200;2023-03-11T11:13:19;100766.88;;;7.29;71.03
35910;BME280;22004;49.120;-0.200;2023-03-11T11:15:58;100766.50;;;8.08;70.11
35910;BME280;22004;49.120;-0.200;2023-03-11T11:21:07;100778.91;;;7.67;70.23
35910;BME280;22004;49.120;-0.200;2023-03-11T11:26:13;100779.91;;;7.32;72.83
35910;BME280;22004;49.120;-0.200;2023-03-11T11:28:39;100768.47;;;7.47;69.53
35910;BME280;22004;49.120;-0.200;2023-03-11T11:31:19;100762.28;;;7.13;71.13
35910;BME280;22004;49.120;-0.200;2023-03-11T11:36:16;100748.72;;;7.06;72.00
35910;BME280;22004;49.120;-0.200;2023-03-11T11:38:42;100758.06;;;7.36;70.22
35910;BME280;22004;49.120;-0.200;2023-03-11T11:41:13;100753.69;;;7.01;72.40
35910;BME280;22004;49.120;-0.200;2023-03-11T11:43:48;100752.28;;;7.49;71.91
35910;BME280;22004;49.120;-0.200;2023-03-11T11:49:17;100732.94;;;6.87;72.97
35910;BME280;22004;49.120;-0.200;2023-03-11T11:56:55;100756.81;;;8.07;70.74
35910;BME280;22004;49.120;-0.200;2023-03-11T11:59:22;100762.59;;;7.44;71.47
35910;BME280;22004;49.120;-0.200;2023-03-11T12:01:59;100765.00;;;8.06;70.75
35910;BME280;22004;49.120;-0.200;2023-03-11T12:04:32;100777.91;;;8.18;69.21
35910;BME280;22004;49.120;-0.200;2023-03-11T12:07:25;100773.03;;;8.14;69.47
35910;BME280;22004;49.120;-0.200;2023-03-11T12:10:17;100767.56;;;8.32;68.04
35910;BME280;22004;49.120;-0.200;2023-03-11T12:18:45;100774.63;;;8.41;69.49
35910;BME280;22004;49.120;-0.200;2023-03-11T12:26:23;100778.13;;;7.14;72.28
35910;BME280;22004;49.120;-0.200;2023-03-11T12:29:10;100777.56;;;6.77;73.09
35910;BME280;22004;49.120;-0.200;2023-03-11T12:31:38;100777.81;;;7.17;72.95
35910;BME280;22004;49.120;-0.200;2023-03-11T12:34:14;100782.66;;;7.82;70.38
35910;BME280;22004;49.120;-0.200;2023-03-11T12:36:44;100786.78;;;8.27;70.04
35910;BME280;22004;49.120;-0.200;2023-03-11T12:39:27;100782.72;;;8.07;69.33
35910;BME280;22004;49.120;-0.200;2023-03-11T12:44:39;100788.41;;;8.12;70.74
35910;BME280;22004;49.120;-0.200;2023-03-11T12:49:35;100789.78;;;8.32;69.19
35910;BME280;22004;49.120;-0.200;2023-03-11T12:57:30;100767.84;;;8.04;69.93
35910;BME280;22004;49.120;-0.200;2023-03-11T13:00:20;100772.97;;;7.89;71.60
35910;BME280;22004;49.120;-0.200;2023-03-11T13:16:39;100758.31;;;8.01;71.35
35910;BME280;22004;49.120;-0.200;2023-03-11T13:19:31;100764.09;;;8.72;70.27
35910;BME280;22004;49.120;-0.200;2023-03-11T13:21:59;100761.13;;;7.49;72.69
35910;BME280;22004;49.120;-0.200;2023-03-11T13:32:24;100757.69;;;8.32;70.69
35910;BME280;22004;49.120;-0.200;2023-03-11T13:40:52;100753.91;;;7.84;72.11
35910;BME280;22004;49.120;-0.200;2023-03-11T13:43:22;100762.69;;;8.35;71.17
35910;BME280;22004;49.120;-0.200;2023-03-11T13:46:00;100756.97;;;7.97;72.96
35910;BME280;22004;49.120;-0.200;2023-03-11T13:48:44;100758.25;;;8.52;70.23
35910;BME280;22004;49.120;-0.200;2023-03-11T13:51:15;100763.56;;;8.36;71.09
35910;BME280;22004;49.120;-0.200;2023-03-11T13:53:46;100762.28;;;7.81;72.22
35910;BME280;22004;49.120;-0.200;2023-03-11T13:56:20;100763.19;;;8.06;71.52
35910;BME280;22004;49.120;-0.200;2023-03-11T13:58:47;100768.47;;;7.47;75.08
35910;BME280;22004;49.120;-0.200;2023-03-11T14:01:16;100763.31;;;7.54;74.39
35910;BME280;22004;49.120;-0.200;2023-03-11T14:03:43;100762.91;;;8.74;70.89
35910;BME280;22004;49.120;-0.200;2023-03-11T14:06:14;100756.66;;;8.09;71.91
35910;BME280;22004;49.120;-0.200;2023-03-11T14:08:51;100759.34;;;8.25;72.53
35910;BME280;22004;49.120;-0.200;2023-03-11T14:11:17;100765.66;;;7.99;72.74
35910;BME280;22004;49.120;-0.200;2023-03-11T14:13:47;100766.44;;;8.42;71.75
35910;BME280;22004;49.120;-0.200;2023-03-11T14:16:35;100755.88;;;8.90;69.90
35910;BME280;22004;49.120;-0.200;2023-03-11T14:19:17;100759.38;;;7.66;73.98
35910;BME280;22004;49.120;-0.200;2023-03-11T14:21:44;100756.28;;;7.87;73.09
35910;BME280;22004;49.120;-0.200;2023-03-11T14:24:23;100759.06;;;8.36;72.63
35910;BME280;22004;49.120;-0.200;2023-03-11T14:26:50;100760.22;;;8.74;70.37
35910;BME280;22004;49.120;-0.200;2023-03-11T14:29:25;100757.75;;;7.82;74.53